sensor_id;sensor_type;location;lat;lon;timestamp;pressure;altitude;pressure_sealevel;temperature;humidity
41312;BME280;27061;41.648;24.568;2023-05-24T00:00:37;85833.22;;;11.13;71.97
41312;BME280;27061;41.648;24.568;2023-05-24T00:03:04;85832.53;;;11.13;72.14
41312;BME280;27061;41.648;24.568;2023-05-24T00:05:32;85792.81;;;10.83;72.06
41312;BME280;27061;41.648;24.568;2023-05-24T00:08:10;85732.56;;;10.39;71.96
41312;BME280;27061;41.648;24.568;2023-05-24T00:10:38;85750.34;;;10.54;71.97
41312;BME280;27061;41.648;24.568;2023-05-24T00:13:05;85829.13;;;11.10;71.91
41312;BME280;27061;41.648;24.568;2023-05-24T00:15:32;85713.97;;;10.33;71.43
41312;BME280;27061;41.648;24.568;2023-05-24T00:18:00;85801.69;;;10.92;71.99
41312;BME280;27061;41.648;24.568;2023-05-24T00:20:33;85827.00;;;11.13;72.03
41312;BME280;27061;41.648;24.568;2023-05-24T00:23:00;85825.66;;;11.12;71.62
41312;BME280;27061;41.648;24.568;2023-05-24T00:25:27;85658.69;;;9.78;71.30
41312;BME280;27061;41.648;24.568;2023-05-24T00:27:55;85683.53;;;9.82;71.53
41312;BME280;27061;41.648;24.568;2023-05-24T00:30:24;85771.03;;;10.59;72.00
41312;BME280;27061;41.648;24.568;2023-05-24T00:32:53;85780.53;;;10.72;71.27
41312;BME280;27061;41.648;24.568;2023-05-24T00:35:22;85755.97;;;10.48;71.62
41312;BME280;27061;41.648;24.568;2023-05-24T00:37:49;85794.25;;;10.80;71.52
41312;BME280;27061;41.648;24.568;2023-05-24T00:40:16;85820.28;;;10.99;71.76
41312;BME280;27061;41.648;24.568;2023-05-24T00:42:43;85823.13;;;10.93;72.50
41312;BME280;27061;41.648;24.568;2023-05-24T00:45:11;85817.59;;;10.93;72.48
41312;BME280;27061;41.648;24.568;2023-05-24T00:47:39;85819.03;;;10.90;72.35
41312;BME280;27061;41.648;24.568;2023-05-24T00:50:07;85816.97;;;10.91;72.06
41312;BME280;27061;41.648;24.568;2023-05-24T00:52:35;85758.75;;;10.46;71.92
41312;BME280;27061;41.648;24.568;2023-05-24T00:55:03;85813.59;;;10.82;71.96
41312;BME280;27061;41.648;24.568;2023-05-24T00:57:31;85724.59;;;10.14;72.19
41312;BME280;27061;41.648;24.568;2023-05-24T00:59:58;85798.59;;;10.67;72.49
41312;BME280;27061;41.648;24.568;2023-05-24T01:02:26;85731.44;;;10.19;72.32
41312;BME280;27061;41.648;24.568;2023-05-24T01:04:53;85695.81;;;9.93;71.92
41312;BME280;27061;41.648;24.568;2023-05-24T01:12:57;85815.81;;;10.72;72.58
41312;BME280;27061;41.648;24.568;2023-05-24T01:15:38;85787.75;;;10.51;72.48
41312;BME280;27061;41.648;24.568;2023-05-24T01:18:13;85796.72;;;10.51;72.39
41312;BME280;27061;41.648;24.568;2023-05-24T01:20:42;85627.00;;;9.15;72.60
41312;BME280;27061;41.648;24.568;2023-05-24T01:29:15;85807.03;;;10.57;72.87
41312;BME280;27061;41.648;24.568;2023-05-24T01:31:42;85783.13;;;10.35;72.84
41312;BME280;27061;41.648;24.568;2023-05-24T01:34:10;85768.72;;;10.26;72.88
41312;BME280;27061;41.648;24.568;2023-05-24T01:36:38;85798.19;;;10.46;72.68
41312;BME280;27061;41.648;24.568;2023-05-24T01:39:05;85744.78;;;10.03;72.36
41312;BME280;27061;41.648;24.568;2023-05-24T01:41:44;85756.69;;;9.89;73.33
41312;BME280;27061;41.648;24.568;2023-05-24T01:46:56;85732.03;;;9.73;73.84
41312;BME280;27061;41.648;24.568;2023-05-24T01:49:33;85804.69;;;10.24;73.65
41312;BME280;27061;41.648;24.568;2023-05-24T01:52:08;85805.38;;;10.25;74.02
41312;BME280;27061;41.648;24.568;2023-05-24T01:54:40;85762.09;;;9.99;73.66
41312;BME280;27061;41.648;24.568;2023-05-24T01:57:10;85759.34;;;9.99;73.36
41312;BME280;27061;41.648;24.568;2023-05-24T01:59:40;85805.41;;;10.23;73.78
41312;BME280;27061;41.648;24.568;2023-05-24T02:02:09;85756.00;;;9.88;74.07
41312;BME280;27061;41.648;24.568;2023-05-24T02:04:36;85804.69;;;10.24;74.20
41312;BME280;27061;41.648;24.568;2023-05-24T02:07:05;85779.25;;;10.10;74.25
41312;BME280;27061;41.648;24.568;2023-05-24T02:09:32;85784.28;;;9.95;74.05
41312;BME280;27061;41.648;24.568;2023-05-24T02:11:59;85762.16;;;9.95;74.00
41312;BME280;27061;41.648;24.568;2023-05-24T02:14:26;85760.09;;;9.94;74.11
41312;BME280;27061;41.648;24.568;2023-05-24T02:16:53;85793.72;;;10.14;73.84
41312;BME280;27061;41.648;24.568;2023-05-24T02:19:25;85808.91;;;10.19;74.52
41312;BME280;27061;41.648;24.568;2023-05-24T02:21:52;85777.28;;;10.02;74.15
41312;BME280;27061;41.648;24.568;2023-05-24T02:24:20;85808.91;;;10.17;73.87
41312;BME280;27061;41.648;24.568;2023-05-24T02:26:47;85765.88;;;9.73;74.59
41312;BME280;27061;41.648;24.568;2023-05-24T02:29:14;85793.16;;;10.06;74.10
41312;BME280;27061;41.648;24.568;2023-05-24T02:31:42;85745.28;;;9.62;74.06
41312;BME280;27061;41.648;24.568;2023-05-24T02:34:09;85780.84;;;9.93;74.25
41312;BME280;27061;41.648;24.568;2023-05-24T02:36:36;85787.13;;;9.89;74.94
41312;BME280;27061;41.648;24.568;2023-05-24T02:39:03;85800.75;;;10.05;74.54
41312;BME280;27061;41.648;24.568;2023-05-24T02:41:31;85692.59;;;9.15;75.14
41312;BME280;27061;41.648;24.568;2023-05-24T02:43:58;85769.28;;;9.76;74.97
41312;BME280;27061;41.648;24.568;2023-05-24T02:46:26;85766.56;;;9.74;74.78
41312;BME280;27061;41.648;24.568;2023-05-24T02:48:53;85765.94;;;9.67;74.62
41312;BME280;27061;41.648;24.568;2023-05-24T02:51:20;85813.22;;;10.04;74.83
41312;BME280;27061;41.648;24.568;2023-05-24T02:53:47;85801.50;;;10.00;75.04
41312;BME280;27061;41.648;24.568;2023-05-24T02:56:15;85752.91;;;9.60;74.72
41312;BME280;27061;41.648;24.568;2023-05-24T02:58:45;85737.84;;;9.44;74.37
41312;BME280;27061;41.648;24.568;2023-05-24T03:01:12;85803.66;;;9.93;74.81
41312;BME280;27061;41.648;24.568;2023-05-24T03:03:40;85806.44;;;9.93;75.36
41312;BME280;27061;41.648;24.568;2023-05-24T03:06:08;85778.97;;;9.75;74.33
41312;BME280;27061;41.648;24.568;2023-05-24T03:08:35;85783.78;;;9.78;74.21
41312;BME280;27061;41.648;24.568;2023-05-24T03:11:05;85702.22;;;9.18;74.46
41312;BME280;27061;41.648;24.568;2023-05-24T03:13:33;85798.22;;;9.85;74.27
41312;BME280;27061;41.648;24.568;2023-05-24T03:16:00;85817.50;;;9.93;75.00
41312;BME280;27061;41.648;24.568;2023-05-24T03:18:28;85717.34;;;9.23;75.32
41312;BME280;27061;41.648;24.568;2023-05-24T03:20:55;85790.06;;;9.73;75.66
41312;BME280;27061;41.648;24.568;2023-05-24T03:23:22;85823.69;;;9.96;75.58
41312;BME280;27061;41.648;24.568;2023-05-24T03:25:50;85798.31;;;9.77;75.43
41312;BME280;27061;41.648;24.568;2023-05-24T03:28:17;85816.81;;;9.93;75.61
41312;BME280;27061;41.648;24.568;2023-05-24T03:30:44;85821.16;;;9.73;77.47
41312;BME280;27061;41.648;24.568;2023-05-24T03:33:12;85779.25;;;9.50;77.77
41312;BME280;27061;41.648;24.568;2023-05-24T03:35:40;85766.84;;;9.45;77.57
41312;BME280;27061;41.648;24.568;2023-05-24T03:38:08;85823.06;;;9.87;77.32
41312;BME280;27061;41.648;24.568;2023-05-24T03:40:37;85824.44;;;9.88;77.87
41312;BME280;27061;41.648;24.568;2023-05-24T03:43:25;85821.69;;;9.86;78.29
41312;BME280;27061;41.648;24.568;2023-05-24T03:45:55;85790.13;;;9.67;78.39
41312;BME280;27061;41.648;24.568;2023-05-24T03:48:23;85726.44;;;9.13;79.34
41312;BME280;27061;41.648;24.568;2023-05-24T03:50:51;85821.56;;;9.98;79.32
41312;BME280;27061;41.648;24.568;2023-05-24T03:53:20;85819.50;;;9.99;79.29
41312;BME280;27061;41.648;24.568;2023-05-24T03:55:49;85822.97;;;9.97;80.06
41312;BME280;27061;41.648;24.568;2023-05-24T03:58:16;85822.94;;;9.99;81.08
41312;BME280;27061;41.648;24.568;2023-05-24T04:00:43;85807.75;;;9.96;81.60
41312;BME280;27061;41.648;24.568;2023-05-24T04:03:11;85794.06;;;9.86;81.80
41312;BME280;27061;41.648;24.568;2023-05-24T04:05:39;85772.03;;;9.78;82.27
41312;BME280;27061;41.648;24.568;2023-05-24T04:08:06;85815.88;;;10.14;81.90
41312;BME280;27061;41.648;24.568;2023-05-24T04:10:36;85764.44;;;9.76;82.57
41312;BME280;27061;41.648;24.568;2023-05-24T04:13:03;85785.63;;;9.96;83.50
41312;BME280;27061;41.648;24.568;2023-05-24T04:15:34;85767.78;;;9.87;83.49
41312;BME280;27061;41.648;24.568;2023-05-24T04:18:06;85769.09;;;9.92;83.40
41312;BME280;27061;41.648;24.568;2023-05-24T04:20:33;85837.78;;;10.33;84.30
41312;BME280;27061;41.648;24.568;2023-05-24T04:23:01;85767.78;;;9.87;85.03
41312;BME280;27061;41.648;24.568;2023-05-24T04:25:29;85771.78;;;9.98;85.67
41312;BME280;27061;41.648;24.568;2023-05-24T04:27:56;85832.13;;;10.43;87.03
41312;BME280;27061;41.648;24.568;2023-05-24T04:30:24;85822.41;;;10.48;88.85
41312;BME280;27061;41.648;24.568;2023-05-24T04:32:51;85721.66;;;9.73;88.74
41312;BME280;27061;41.648;24.568;2023-05-24T04:35:19;85837.53;;;10.55;89.26
41312;BME280;27061;41.648;24.568;2023-05-24T04:37:47;85794.19;;;10.35;88.63
41312;BME280;27061;41.648;24.568;2023-05-24T04:40:18;85836.00;;;10.66;89.54
41312;BME280;27061;41.648;24.568;2023-05-24T04:42:49;85837.34;;;10.69;90.37
41312;BME280;27061;41.648;24.568;2023-05-24T04:45:16;85801.66;;;10.45;90.64
41312;BME280;27061;41.648;24.568;2023-05-24T04:47:43;85791.16;;;10.53;91.13
41312;BME280;27061;41.648;24.568;2023-05-24T04:50:11;85797.28;;;10.60;88.42
41312;BME280;27061;41.648;24.568;2023-05-24T04:52:38;85834.91;;;10.94;88.92
41312;BME280;27061;41.648;24.568;2023-05-24T04:55:05;85721.78;;;10.16;89.95
41312;BME280;27061;41.648;24.568;2023-05-24T04:57:32;85839.59;;;11.06;91.83
41312;BME280;27061;41.648;24.568;2023-05-24T04:59:59;85786.66;;;10.79;93.43
41312;BME280;27061;41.648;24.568;2023-05-24T05:02:27;85827.06;;;11.09;94.26
41312;BME280;27061;41.648;24.568;2023-05-24T05:04:55;85840.59;;;11.31;97.66
41312;BME280;27061;41.648;24.568;2023-05-24T05:07:22;85838.38;;;11.40;98.06
41312;BME280;27061;41.648;24.568;2023-05-24T05:09:49;85812.97;;;11.25;98.11
41312;BME280;27061;41.648;24.568;2023-05-24T05:12:16;85784.00;;;11.16;98.26
41312;BME280;27061;41.648;24.568;2023-05-24T05:14:44;85843.53;;;11.64;97.28
41312;BME280;27061;41.648;24.568;2023-05-24T05:17:11;85815.28;;;11.53;99.28
41312;BME280;27061;41.648;24.568;2023-05-24T05:19:39;85808.34;;;11.54;97.41
41312;BME280;27061;41.648;24.568;2023-05-24T05:22:06;85810.88;;;11.66;89.89
41312;BME280;27061;41.648;24.568;2023-05-24T05:24:33;85751.81;;;11.35;87.69
41312;BME280;27061;41.648;24.568;2023-05-24T05:27:01;85854.50;;;12.11;84.11
41312;BME280;27061;41.648;24.568;2023-05-24T05:29:28;85859.84;;;12.23;84.49
41312;BME280;27061;41.648;24.568;2023-05-24T05:31:55;85857.50;;;12.38;80.92
41312;BME280;27061;41.648;24.568;2023-05-24T05:34:22;85767.66;;;11.82;82.04
41312;BME280;27061;41.648;24.568;2023-05-24T05:36:49;85857.78;;;12.59;81.79
41312;BME280;27061;41.648;24.568;2023-05-24T05:39:17;85859.00;;;12.68;81.23
41312;BME280;27061;41.648;24.568;2023-05-24T05:41:44;85833.47;;;12.59;80.42
41312;BME280;27061;41.648;24.568;2023-05-24T05:44:12;85772.47;;;12.20;80.81
41312;BME280;27061;41.648;24.568;2023-05-24T05:46:40;85857.66;;;13.00;82.95
41312;BME280;27061;41.648;24.568;2023-05-24T05:49:09;85855.50;;;13.02;84.02
41312;BME280;27061;41.648;24.568;2023-05-24T05:51:36;85863.53;;;13.18;82.43
41312;BME280;27061;41.648;24.568;2023-05-24T05:54:04;85826.28;;;13.03;80.96
41312;BME280;27061;41.648;24.568;2023-05-24T05:56:32;85871.97;;;13.45;80.52
41312;BME280;27061;41.648;24.568;2023-05-24T05:58:59;85865.53;;;13.53;80.54
41312;BME280;27061;41.648;24.568;2023-05-24T06:01:26;85767.13;;;12.78;73.15
41312;BME280;27061;41.648;24.568;2023-05-24T06:03:53;85757.91;;;12.86;74.03
41312;BME280;27061;41.648;24.568;2023-05-24T06:06:21;85863.78;;;13.68;70.59
41312;BME280;27061;41.648;24.568;2023-05-24T06:08:48;85846.59;;;13.60;70.80
41312;BME280;27061;41.648;24.568;2023-05-24T06:11:15;85881.19;;;13.98;72.73
41312;BME280;27061;41.648;24.568;2023-05-24T06:13:42;85829.09;;;13.65;71.56
41312;BME280;27061;41.648;24.568;2023-05-24T06:16:09;85889.22;;;14.10;66.73
41312;BME280;27061;41.648;24.568;2023-05-24T06:18:44;85854.28;;;13.88;66.44
41312;BME280;27061;41.648;24.568;2023-05-24T06:21:30;85846.16;;;13.78;70.44
41312;BME280;27061;41.648;24.568;2023-05-24T06:23:58;85849.50;;;13.84;71.97
41312;BME280;27061;41.648;24.568;2023-05-24T06:26:25;85886.19;;;14.20;72.27
41312;BME280;27061;41.648;24.568;2023-05-24T06:28:53;85826.00;;;13.77;66.77
41312;BME280;27061;41.648;24.568;2023-05-24T06:31:20;85843.63;;;13.97;70.36
41312;BME280;27061;41.648;24.568;2023-05-24T06:33:47;85892.84;;;14.33;71.37
41312;BME280;27061;41.648;24.568;2023-05-24T06:36:29;85883.34;;;14.22;70.59
41312;BME280;27061;41.648;24.568;2023-05-24T06:38:56;85854.63;;;14.03;70.47
41312;BME280;27061;41.648;24.568;2023-05-24T06:41:23;85851.69;;;14.09;68.25
41312;BME280;27061;41.648;24.568;2023-05-24T06:43:50;85881.72;;;14.31;70.08
41312;BME280;27061;41.648;24.568;2023-05-24T06:46:21;85900.75;;;14.51;68.79
41312;BME280;27061;41.648;24.568;2023-05-24T06:48:48;85885.59;;;14.44;69.10
41312;BME280;27061;41.648;24.568;2023-05-24T06:51:16;85858.25;;;14.24;69.20
41312;BME280;27061;41.648;24.568;2023-05-24T06:53:43;85905.31;;;14.63;70.39
41312;BME280;27061;41.648;24.568;2023-05-24T06:56:10;85901.75;;;14.67;70.76
41312;BME280;27061;41.648;24.568;2023-05-24T06:58:37;85876.34;;;14.52;70.59
41312;BME280;27061;41.648;24.568;2023-05-24T07:01:05;85864.59;;;14.49;70.35
41312;BME280;27061;41.648;24.568;2023-05-24T07:03:32;85895.91;;;14.77;69.55
41312;BME280;27061;41.648;24.568;2023-05-24T07:05:59;85900.75;;;14.78;69.05
41312;BME280;27061;41.648;24.568;2023-05-24T07:08:26;85867.72;;;14.62;69.40
41312;BME280;27061;41.648;24.568;2023-05-24T07:10:53;85893.53;;;14.87;69.08
41312;BME280;27061;41.648;24.568;2023-05-24T07:13:21;85894.81;;;14.92;68.14
41312;BME280;27061;41.648;24.568;2023-05-24T07:15:49;85895.34;;;14.97;66.08
41312;BME280;27061;41.648;24.568;2023-05-24T07:18:24;85873.47;;;14.83;66.15
41312;BME280;27061;41.648;24.568;2023-05-24T07:20:52;85837.56;;;14.71;64.20
41312;BME280;27061;41.648;24.568;2023-05-24T07:23:20;85868.75;;;15.02;63.94
41312;BME280;27061;41.648;24.568;2023-05-24T07:25:47;85840.81;;;14.79;59.87
41312;BME280;27061;41.648;24.568;2023-05-24T07:28:15;85864.41;;;15.07;60.45
41312;BME280;27061;41.648;24.568;2023-05-24T07:30:45;85864.75;;;14.95;62.60
41312;BME280;27061;41.648;24.568;2023-05-24T07:33:13;85894.63;;;15.23;62.52
41312;BME280;27061;41.648;24.568;2023-05-24T07:35:40;85864.69;;;14.97;60.59
41312;BME280;27061;41.648;24.568;2023-05-24T07:38:08;85856.66;;;14.85;59.90
41312;BME280;27061;41.648;24.568;2023-05-24T07:40:35;85857.88;;;14.92;62.10
41312;BME280;27061;41.648;24.568;2023-05-24T07:43:02;85854.41;;;14.91;63.46
41312;BME280;27061;41.648;24.568;2023-05-24T07:45:30;85860.50;;;14.98;63.87
41312;BME280;27061;41.648;24.568;2023-05-24T07:47:57;85840.53;;;14.89;58.43
41312;BME280;27061;41.648;24.568;2023-05-24T07:50:27;85893.66;;;15.33;55.36
41312;BME280;27061;41.648;24.568;2023-05-24T07:52:56;85842.56;;;14.91;57.57
41312;BME280;27061;41.648;24.568;2023-05-24T07:55:23;85871.41;;;15.06;57.69
41312;BME280;27061;41.648;24.568;2023-05-24T07:57:51;85874.44;;;15.23;64.33
41312;BME280;27061;41.648;24.568;2023-05-24T08:00:18;85858.03;;;15.11;63.78
41312;BME280;27061;41.648;24.568;2023-05-24T08:02:45;85878.50;;;15.26;66.21
41312;BME280;27061;41.648;24.568;2023-05-24T08:05:14;85861.38;;;15.15;66.01
41312;BME280;27061;41.648;24.568;2023-05-24T08:07:42;85834.78;;;14.95;64.38
41312;BME280;27061;41.648;24.568;2023-05-24T08:10:09;85888.88;;;15.29;62.59
41312;BME280;27061;41.648;24.568;2023-05-24T08:12:40;85873.56;;;15.28;63.14
41312;BME280;27061;41.648;24.568;2023-05-24T08:15:08;85880.06;;;15.46;64.15
41312;BME280;27061;41.648;24.568;2023-05-24T08:17:37;85881.06;;;15.59;66.45
41312;BME280;27061;41.648;24.568;2023-05-24T08:20:05;85866.91;;;15.67;65.19
41312;BME280;27061;41.648;24.568;2023-05-24T08:22:33;85899.41;;;15.99;65.32
41312;BME280;27061;41.648;24.568;2023-05-24T08:25:00;85848.31;;;15.80;62.59
41312;BME280;27061;41.648;24.568;2023-05-24T08:27:27;85867.81;;;16.05;63.71
41312;BME280;27061;41.648;24.568;2023-05-24T08:29:56;85876.56;;;16.36;63.67
41312;BME280;27061;41.648;24.568;2023-05-24T08:32:23;85831.84;;;16.16;59.97
41312;BME280;27061;41.648;24.568;2023-05-24T08:34:51;85847.94;;;16.36;60.13
41312;BME280;27061;41.648;24.568;2023-05-24T08:37:32;85893.31;;;16.80;63.56
41312;BME280;27061;41.648;24.568;2023-05-24T08:39:59;85844.34;;;16.60;61.46
41312;BME280;27061;41.648;24.568;2023-05-24T08:42:33;85856.97;;;16.80;58.58
41312;BME280;27061;41.648;24.568;2023-05-24T08:45:11;85892.72;;;17.17;57.17
41312;BME280;27061;41.648;24.568;2023-05-24T08:47:39;85891.16;;;17.22;59.75
41312;BME280;27061;41.648;24.568;2023-05-24T08:50:07;85821.03;;;16.89;59.91
41312;BME280;27061;41.648;24.568;2023-05-24T08:52:35;85859.75;;;17.01;53.75
41312;BME280;27061;41.648;24.568;2023-05-24T08:55:05;85909.66;;;17.52;53.24
41312;BME280;27061;41.648;24.568;2023-05-24T08:57:34;85913.22;;;17.51;56.49
41312;BME280;27061;41.648;24.568;2023-05-24T09:00:10;85906.13;;;17.54;53.59
41312;BME280;27061;41.648;24.568;2023-05-24T09:02:39;85912.41;;;17.54;55.35
41312;BME280;27061;41.648;24.568;2023-05-24T09:05:12;85906.94;;;17.50;56.55
41312;BME280;27061;41.648;24.568;2023-05-24T09:07:44;85762.72;;;16.37;56.12
41312;BME280;27061;41.648;24.568;2023-05-24T09:10:11;85915.13;;;17.56;53.48
41312;BME280;27061;41.648;24.568;2023-05-24T09:12:42;85922.78;;;17.58;54.00
41312;BME280;27061;41.648;24.568;2023-05-24T09:15:10;85923.59;;;17.54;53.85
41312;BME280;27061;41.648;24.568;2023-05-24T09:17:38;85911.47;;;17.41;55.44
41312;BME280;27061;41.648;24.568;2023-05-24T09:20:06;85931.19;;;17.58;51.95
41312;BME280;27061;41.648;24.568;2023-05-24T09:22:37;85912.06;;;17.25;54.77
41312;BME280;27061;41.648;24.568;2023-05-24T09:25:09;85915.69;;;17.40;52.96
41312;BME280;27061;41.648;24.568;2023-05-24T09:27:38;85937.72;;;17.50;56.74
41312;BME280;27061;41.648;24.568;2023-05-24T09:30:12;85883.69;;;16.96;55.86
41312;BME280;27061;41.648;24.568;2023-05-24T09:32:53;85935.44;;;17.36;56.77
41312;BME280;27061;41.648;24.568;2023-05-24T09:35:20;85922.69;;;17.20;54.49
41312;BME280;27061;41.648;24.568;2023-05-24T09:37:48;85894.38;;;17.10;53.20
41312;BME280;27061;41.648;24.568;2023-05-24T09:40:18;85902.50;;;17.18;54.48
41312;BME280;27061;41.648;24.568;2023-05-24T09:42:46;85920.22;;;17.31;55.41
41312;BME280;27061;41.648;24.568;2023-05-24T09:45:17;85933.09;;;17.43;54.43
41312;BME280;27061;41.648;24.568;2023-05-24T09:47:44;85901.28;;;17.13;50.92
41312;BME280;27061;41.648;24.568;2023-05-24T09:50:13;85872.91;;;17.04;52.27
41312;BME280;27061;41.648;24.568;2023-05-24T09:52:41;85921.16;;;17.44;50.09
41312;BME280;27061;41.648;24.568;2023-05-24T09:55:19;85937.72;;;17.50;49.82
41312;BME280;27061;41.648;24.568;2023-05-24T09:57:51;85944.56;;;17.55;50.29
41312;BME280;27061;41.648;24.568;2023-05-24T10:00:21;85942.19;;;17.43;49.16
41312;BME280;27061;41.648;24.568;2023-05-24T10:03:04;85943.28;;;17.32;49.89
41312;BME280;27061;41.648;24.568;2023-05-24T10:05:41;85941.16;;;17.32;52.09
41312;BME280;27061;41.648;24.568;2023-05-24T10:08:09;85944.59;;;17.35;52.66
41312;BME280;27061;41.648;24.568;2023-05-24T10:10:36;85917.25;;;16.96;52.08
41312;BME280;27061;41.648;24.568;2023-05-24T10:13:03;85861.41;;;16.73;56.28
41312;BME280;27061;41.648;24.568;2023-05-24T10:15:30;85893.66;;;16.91;57.38
41312;BME280;27061;41.648;24.568;2023-05-24T10:17:57;85948.66;;;17.38;57.97
41312;BME280;27061;41.648;24.568;2023-05-24T10:20:27;85946.97;;;17.47;57.23
41312;BME280;27061;41.648;24.568;2023-05-24T10:23:00;85902.97;;;17.25;56.33
41312;BME280;27061;41.648;24.568;2023-05-24T10:25:32;85948.56;;;17.61;55.40
41312;BME280;27061;41.648;24.568;2023-05-24T10:28:07;85937.31;;;17.63;55.20
41312;BME280;27061;41.648;24.568;2023-05-24T10:30:46;85907.91;;;17.43;54.12
41312;BME280;27061;41.648;24.568;2023-05-24T10:33:17;85935.75;;;17.86;52.51
41312;BME280;27061;41.648;24.568;2023-05-24T10:35:45;85914.25;;;17.81;47.76
41312;BME280;27061;41.648;24.568;2023-05-24T10:38:12;85935.69;;;17.88;49.12
41312;BME280;27061;41.648;24.568;2023-05-24T10:40:40;85894.00;;;17.60;51.96
41312;BME280;27061;41.648;24.568;2023-05-24T10:43:08;85898.06;;;17.65;49.58
41312;BME280;27061;41.648;24.568;2023-05-24T10:45:37;85902.22;;;17.84;53.18
41312;BME280;27061;41.648;24.568;2023-05-24T10:50:40;85916.97;;;18.20;51.44
41312;BME280;27061;41.648;24.568;2023-05-24T10:53:15;85844.41;;;17.77;55.76
41312;BME280;27061;41.648;24.568;2023-05-24T10:55:58;85924.31;;;18.30;54.21
41312;BME280;27061;41.648;24.568;2023-05-24T11:00:58;85913.16;;;18.47;53.54
41312;BME280;27061;41.648;24.568;2023-05-24T11:03:32;85910.13;;;18.53;51.61
41312;BME280;27061;41.648;24.568;2023-05-24T11:05:59;85897.84;;;18.44;44.94
41312;BME280;27061;41.648;24.568;2023-05-24T11:08:31;85909.34;;;18.73;44.19
41312;BME280;27061;41.648;24.568;2023-05-24T11:11:08;85914.94;;;18.73;42.46
41312;BME280;27061;41.648;24.568;2023-05-24T11:13:41;85917.63;;;18.75;47.03
41312;BME280;27061;41.648;24.568;2023-05-24T11:16:09;85909.63;;;18.65;47.25
41312;BME280;27061;41.648;24.568;2023-05-24T11:18:56;85862.13;;;18.25;49.19
41312;BME280;27061;41.648;24.568;2023-05-24T11:21:23;85918.50;;;18.72;47.45
41312;BME280;27061;41.648;24.568;2023-05-24T11:23:51;85922.22;;;18.66;49.64
41312;BME280;27061;41.648;24.568;2023-05-24T11:26:21;85900.72;;;18.60;49.10
41312;BME280;27061;41.648;24.568;2023-05-24T11:28:49;85894.03;;;18.70;48.09
41312;BME280;27061;41.648;24.568;2023-05-24T11:31:16;85875.03;;;18.54;47.07
41312;BME280;27061;41.648;24.568;2023-05-24T11:33:43;85878.31;;;18.77;43.72
41312;BME280;27061;41.648;24.568;2023-05-24T11:36:11;85884.34;;;18.84;42.03
41312;BME280;27061;41.648;24.568;2023-05-24T11:38:38;85909.03;;;19.15;42.25
41312;BME280;27061;41.648;24.568;2023-05-24T11:41:07;85891.69;;;18.93;44.75
41312;BME280;27061;41.648;24.568;2023-05-24T11:43:34;85856.47;;;18.63;40.63
41312;BME280;27061;41.648;24.568;2023-05-24T11:46:01;85846.53;;;18.83;45.62
41312;BME280;27061;41.648;24.568;2023-05-24T11:48:28;85841.78;;;18.96;46.11
41312;BME280;27061;41.648;24.568;2023-05-24T11:50:57;85864.13;;;19.15;40.00
41312;BME280;27061;41.648;24.568;2023-05-24T11:53:25;85853.63;;;19.30;37.48
41312;BME280;27061;41.648;24.568;2023-05-24T11:55:52;85856.28;;;19.34;38.05
41312;BME280;27061;41.648;24.568;2023-05-24T11:58:49;85792.38;;;18.86;38.23
41312;BME280;27061;41.648;24.568;2023-05-24T12:01:23;85879.41;;;19.68;42.02
41312;BME280;27061;41.648;24.568;2023-05-24T12:03:51;85838.84;;;19.48;43.54
41312;BME280;27061;41.648;24.568;2023-05-24T12:06:20;85861.34;;;19.80;43.35
41312;BME280;27061;41.648;24.568;2023-05-24T12:08:48;85841.44;;;19.69;41.38
41312;BME280;27061;41.648;24.568;2023-05-24T12:11:16;85890.41;;;20.20;41.15
41312;BME280;27061;41.648;24.568;2023-05-24T12:13:43;85800.25;;;19.63;40.48
41312;BME280;27061;41.648;24.568;2023-05-24T12:16:16;85869.56;;;20.30;38.46
41312;BME280;27061;41.648;24.568;2023-05-24T12:18:43;85878.47;;;20.34;39.25
41312;BME280;27061;41.648;24.568;2023-05-24T12:21:29;85842.63;;;20.20;34.00
41312;BME280;27061;41.648;24.568;2023-05-24T12:23:56;85876.00;;;20.58;38.28
41312;BME280;27061;41.648;24.568;2023-05-24T12:26:25;85859.81;;;20.58;37.73
41312;BME280;27061;41.648;24.568;2023-05-24T12:28:52;85848.19;;;20.66;37.91
41312;BME280;27061;41.648;24.568;2023-05-24T12:31:20;85853.72;;;20.83;39.79
41312;BME280;27061;41.648;24.568;2023-05-24T12:33:48;85809.97;;;20.57;35.51
41312;BME280;27061;41.648;24.568;2023-05-24T12:36:18;85804.16;;;20.61;37.04
41312;BME280;27061;41.648;24.568;2023-05-24T12:38:45;85784.19;;;20.52;37.97
41312;BME280;27061;41.648;24.568;2023-05-24T12:41:12;85825.06;;;20.93;40.46
41312;BME280;27061;41.648;24.568;2023-05-24T12:43:40;85817.78;;;20.98;42.20
41312;BME280;27061;41.648;24.568;2023-05-24T12:46:10;85799.34;;;21.01;40.58
41312;BME280;27061;41.648;24.568;2023-05-24T12:48:37;85815.44;;;21.17;37.44
41312;BME280;27061;41.648;24.568;2023-05-24T12:51:05;85738.53;;;20.52;36.87
41312;BME280;27061;41.648;24.568;2023-05-24T12:53:33;85856.84;;;21.34;37.26
41312;BME280;27061;41.648;24.568;2023-05-24T12:56:02;85839.59;;;21.12;35.43
41312;BME280;27061;41.648;24.568;2023-05-24T12:58:29;85854.34;;;21.28;36.24
41312;BME280;27061;41.648;24.568;2023-05-24T13:00:57;85853.09;;;21.25;38.15
41312;BME280;27061;41.648;24.568;2023-05-24T13:03:24;85834.16;;;21.08;37.02
41312;BME280;27061;41.648;24.568;2023-05-24T13:05:51;85862.31;;;21.23;37.64
41312;BME280;27061;41.648;24.568;2023-05-24T13:08:18;85835.25;;;21.01;nan
41312;BME280;27061;41.648;24.568;2023-05-24T13:10:46;85831.66;;;21.02;38.21
41312;BME280;27061;41.648;24.568;2023-05-24T13:13:15;85852.59;;;21.20;38.10
41312;BME280;27061;41.648;24.568;2023-05-24T13:15:42;85862.91;;;21.26;39.74
41312;BME280;27061;41.648;24.568;2023-05-24T13:18:10;85847.28;;;21.29;39.96
41312;BME280;27061;41.648;24.568;2023-05-24T13:20:38;85846.94;;;21.35;41.91